Time;durP1;ratioP1;P1;durP2;ratioP2;P2;SDS_P1;SDS_P2;PMS_P1;PMS_P2;Temp;Humidity;BMP_temperature;BMP_pressure;BME280_temperature;BME280_humidity;BME280_pressure;Samples;Min_cycle;Max_cycle;Signal;HPM_P1;HPM_P2
2021/07/18 00:02:03;;;;;;;11.75;2.58;;;19.50;98.50;;;;;;5112707;28;20047;-76
2021/07/18 00:04:29;;;;;;;7.43;2.90;;;19.50;98.70;;;;;;5112800;28;20046;-75
2021/07/18 00:06:54;;;;;;;8.82;2.40;;;19.50;98.90;;;;;;5113027;28;20365;-76
2021/07/18 00:09:21;;;;;;;7.78;3.13;;;19.50;98.80;;;;;;5113378;28;20410;-76
2021/07/18 00:11:47;;;;;;;11.00;2.90;;;19.40;99.10;;;;;;5112468;28;20478;-76
2021/07/18 00:14:13;;;;;;;8.63;3.28;;;19.40;99.00;;;;;;5112551;28;20036;-76
2021/07/18 00:16:39;;;;;;;10.95;2.88;;;19.50;99.20;;;;;;5112552;28;20035;-76
2021/07/18 00:19:06;;;;;;;8.07;3.00;;;19.50;99.20;;;;;;5112629;28;20073;-77
2021/07/18 00:21:31;;;;;;;9.50;2.90;;;19.40;99.70;;;;;;5112248;28;20038;-76
2021/07/18 00:23:57;;;;;;;5.78;3.30;;;19.30;99.70;;;;;;5094941;28;20011;-76
2021/07/18 00:26:24;;;;;;;8.48;2.97;;;19.40;99.60;;;;;;5112453;28;20027;-77
2021/07/18 00:28:50;;;;;;;11.40;3.50;;;19.50;99.60;;;;;;5093791;28;20423;-78
2021/07/18 00:31:16;;;;;;;7.10;3.03;;;19.50;99.70;;;;;;5112210;28;20032;-78
2021/07/18 00:33:42;;;;;;;10.00;3.20;;;19.40;99.80;;;;;;5094183;28;20031;-78
2021/07/18 00:36:07;;;;;;;8.85;3.75;;;19.50;99.80;;;;;;5094511;28;20514;-77
2021/07/18 00:38:33;;;;;;;10.15;3.95;;;19.50;99.90;;;;;;5112056;28;20032;-79
2021/07/18 00:40:59;;;;;;;8.50;3.63;;;19.40;99.90;;;;;;5111934;28;20097;-76
2021/07/18 00:43:24;;;;;;;10.93;3.28;;;19.40;99.90;;;;;;5112148;28;20024;-77
2021/07/18 00:46:08;;;;;;;8.07;3.75;;;19.40;99.90;;;;;;5111889;28;20110;-77
2021/07/18 00:48:34;;;;;;;10.23;4.20;;;19.20;99.90;;;;;;5111916;28;20060;-77
2021/07/18 00:50:59;;;;;;;13.70;4.13;;;19.40;99.90;;;;;;5112325;28;20086;-77
2021/07/18 00:53:26;;;;;;;11.13;4.32;;;19.30;99.90;;;;;;5111864;28;20054;-77
2021/07/18 00:55:52;;;;;;;8.73;4.22;;;19.30;99.90;;;;;;5111993;28;20036;-76
2021/07/18 00:58:18;;;;;;;16.55;4.60;;;19.30;99.90;;;;;;5093961;28;20062;-78
2021/07/18 01:00:44;;;;;;;11.13;5.40;;;19.30;99.90;;;;;;5111726;28;20048;-78
2021/07/18 01:03:10;;;;;;;11.75;5.28;;;19.20;99.90;;;;;;5112304;28;20011;-80
2021/07/18 01:05:36;;;;;;;12.20;5.63;;;19.30;99.90;;;;;;5093706;28;20027;-78
2021/07/18 01:08:01;;;;;;;11.77;5.43;;;19.30;99.90;;;;;;5111457;28;20028;-77
2021/07/18 01:10:27;;;;;;;12.25;4.97;;;19.30;99.90;;;;;;5093360;28;20478;-77
2021/07/18 01:12:53;;;;;;;13.43;5.38;;;19.30;99.90;;;;;;5111387;28;20176;-77
2021/07/18 01:15:19;;;;;;;15.73;5.80;;;19.40;99.90;;;;;;5111770;28;20020;-77
2021/07/18 01:17:45;;;;;;;14.00;5.50;;;19.50;99.90;;;;;;5093305;28;20050;-77
2021/07/18 01:20:13;;;;;;;15.43;6.03;;;19.30;99.90;;;;;;5111427;28;20028;-78
2021/07/18 01:22:40;;;;;;;14.93;5.93;;;19.30;99.90;;;;;;5111514;28;20034;-78
2021/07/18 01:25:10;;;;;;;13.98;5.63;;;19.40;99.90;;;;;;5111416;28;20468;-78
2021/07/18 01:27:37;;;;;;;13.43;5.90;;;19.30;99.90;;;;;;5111492;28;20088;-77
2021/07/18 01:30:08;;;;;;;19.40;7.07;;;19.30;99.90;;;;;;5111619;28;20079;-79
2021/07/18 01:32:34;;;;;;;11.98;5.78;;;19.30;99.90;;;;;;5111158;28;20114;-78
2021/07/18 01:35:00;;;;;;;16.08;6.05;;;19.40;99.90;;;;;;5112816;27;20137;-77
2021/07/18 01:37:25;;;;;;;12.25;5.63;;;19.50;99.90;;;;;;5131675;27;20639;-78
2021/07/18 01:39:51;;;;;;;16.98;6.82;;;19.30;99.90;;;;;;5113541;27;20523;-78
2021/07/18 01:42:17;;;;;;;15.75;6.82;;;19.30;99.90;;;;;;5131683;27;20042;-76
2021/07/18 01:44:43;;;;;;;12.85;5.68;;;19.30;99.90;;;;;;5131783;27;20057;-78
2021/07/18 01:47:10;;;;;;;13.63;6.07;;;19.40;99.90;;;;;;5113537;27;20019;-77
2021/07/18 01:49:36;;;;;;;11.23;5.93;;;19.40;99.90;;;;;;5131695;27;20349;-78
2021/07/18 01:52:03;;;;;;;12.13;4.95;;;19.40;99.90;;;;;;5131447;27;20084;-78
2021/07/18 01:54:28;;;;;;;16.88;5.90;;;19.40;99.90;;;;;;5131483;27;20023;-78
2021/07/18 01:56:54;;;;;;;14.77;5.78;;;19.40;99.90;;;;;;5113518;28;20072;-78
2021/07/18 01:59:19;;;;;;;13.27;5.60;;;19.30;99.90;;;;;;5131330;28;20380;-78
2021/07/18 02:01:45;;;;;;;16.75;6.97;;;19.40;99.90;;;;;;5131371;28;20057;-79
2021/07/18 02:04:12;;;;;;;12.02;6.45;;;19.40;99.90;;;;;;5131686;28;20020;-78
2021/07/18 02:06:38;;;;;;;14.43;5.70;;;19.30;99.90;;;;;;5131400;28;20114;-80
2021/07/18 02:09:04;;;;;;;18.58;7.32;;;19.40;99.90;;;;;;5113834;28;20133;-76
2021/07/18 02:11:30;;;;;;;16.98;5.55;;;19.30;99.90;;;;;;5131388;28;20115;-77
2021/07/18 02:13:58;;;;;;;14.48;5.43;;;19.30;99.90;;;;;;5131262;28;20512;-78
2021/07/18 02:16:24;;;;;;;15.05;6.00;;;19.30;99.90;;;;;;5131048;28;20083;-77
2021/07/18 02:18:51;;;;;;;15.27;6.60;;;19.20;99.90;;;;;;5113054;28;20475;-78
2021/07/18 02:21:20;;;;;;;10.40;5.90;;;19.10;99.90;;;;;;5131733;28;20448;-78
2021/07/18 02:23:47;;;;;;;17.92;6.30;;;19.10;99.90;;;;;;5131145;28;20050;-77
2021/07/18 02:26:12;;;;;;;14.60;6.68;;;19.10;99.90;;;;;;5131258;28;20050;-78
2021/07/18 02:28:38;;;;;;;20.70;6.85;;;19.20;99.90;;;;;;5131204;28;20035;-77
2021/07/18 02:31:04;;;;;;;12.80;5.78;;;19.30;99.90;;;;;;5131276;28;20030;-77
2021/07/18 02:33:31;;;;;;;16.73;6.00;;;19.20;99.90;;;;;;5131284;28;20023;-78
2021/07/18 02:35:57;;;;;;;18.20;6.85;;;19.20;99.90;;;;;;5131653;28;20154;-79
2021/07/18 02:38:24;;;;;;;13.60;6.35;;;19.10;99.90;;;;;;5131277;28;20033;-79
2021/07/18 02:40:49;;;;;;;12.90;5.95;;;19.10;99.90;;;;;;5112826;28;20057;-78
2021/07/18 02:43:15;;;;;;;15.23;6.07;;;19.20;99.90;;;;;;5131314;28;20102;-78
2021/07/18 02:45:40;;;;;;;17.60;5.72;;;19.10;99.90;;;;;;5131088;28;20016;-78
2021/07/18 02:48:06;;;;;;;11.57;5.45;;;19.10;99.90;;;;;;5131622;28;20019;-79
2021/07/18 02:50:32;;;;;;;18.05;6.63;;;19.30;99.90;;;;;;5130937;28;20464;-79
2021/07/18 02:52:57;;;;;;;12.30;5.28;;;19.30;99.90;;;;;;5130883;27;20032;-78
2021/07/18 02:55:23;;;;;;;10.48;5.53;;;19.40;99.90;;;;;;5134610;27;20035;-77
2021/07/18 02:57:49;;;;;;;13.63;5.97;;;19.40;99.90;;;;;;5134609;27;20046;-78
2021/07/18 03:00:17;;;;;;;18.73;6.57;;;19.30;99.90;;;;;;5135177;27;20034;-78
2021/07/18 03:02:43;;;;;;;;;;;19.30;99.90;;;;;;5135397;27;20035;-79
2021/07/18 03:05:10;;;;;;;12.77;5.65;;;19.20;99.90;;;;;;5134547;27;20511;-78
2021/07/18 03:07:37;;;;;;;15.65;5.85;;;19.30;99.90;;;;;;5134661;27;20038;-79
2021/07/18 03:10:08;;;;;;;12.65;5.68;;;19.30;99.90;;;;;;5116278;27;20035;-78
2021/07/18 03:12:34;;;;;;;16.02;6.18;;;19.40;99.90;;;;;;5134238;27;20499;-78
2021/07/18 03:15:02;;;;;;;12.90;5.55;;;19.30;99.90;;;;;;5116857;27;20050;-78
2021/07/18 03:17:27;;;;;;;15.57;6.35;;;19.40;99.90;;;;;;5116295;27;20060;-78
2021/07/18 03:19:53;;;;;;;17.30;6.22;;;19.40;99.90;;;;;;5134347;27;20031;-77
2021/07/18 03:22:20;;;;;;;15.35;5.95;;;19.30;99.90;;;;;;5134209;27;20162;-78
2021/07/18 03:24:46;;;;;;;17.13;6.10;;;19.40;99.90;;;;;;5134312;27;20027;-78
2021/07/18 03:27:12;;;;;;;18.95;6.88;;;19.30;99.90;;;;;;5134541;27;20015;-76
2021/07/18 03:29:37;;;;;;;10.60;5.95;;;19.40;99.90;;;;;;5134101;27;20039;-77
2021/07/18 03:32:04;;;;;;;11.88;5.80;;;19.40;99.90;;;;;;5134195;27;20039;-77
2021/07/18 03:34:30;;;;;;;17.17;6.13;;;19.40;99.90;;;;;;5133848;27;20039;-76
2021/07/18 03:36:55;;;;;;;17.40;6.43;;;19.50;99.90;;;;;;5133917;27;20039;-77
2021/07/18 03:39:21;;;;;;;14.85;6.13;;;19.60;99.90;;;;;;5134524;27;20026;-75
2021/07/18 03:41:47;;;;;;;17.83;6.55;;;19.40;99.90;;;;;;5133990;27;20451;-76
2021/07/18 03:44:12;;;;;;;14.32;5.82;;;19.40;99.90;;;;;;5115581;27;20035;-76
2021/07/18 03:46:38;;;;;;;14.18;6.60;;;19.30;99.90;;;;;;5134077;27;20038;-75
2021/07/18 03:49:03;;;;;;;19.25;6.45;;;19.40;99.90;;;;;;5133892;27;20027;-76
2021/07/18 03:51:29;;;;;;;12.65;5.32;;;19.30;99.90;;;;;;5134135;27;20011;-76
2021/07/18 03:53:55;;;;;;;16.90;6.45;;;19.30;99.90;;;;;;5134183;27;20149;-76
2021/07/18 03:56:22;;;;;;;15.90;6.85;;;19.30;99.90;;;;;;5133575;27;20475;-76
2021/07/18 03:58:49;;;;;;;13.13;6.33;;;19.20;99.90;;;;;;5133721;27;20027;-78
2021/07/18 04:01:14;;;;;;;13.43;6.43;;;19.30;99.90;;;;;;5133908;27;20076;-77
2021/07/18 04:03:41;;;;;;;12.85;6.28;;;19.30;99.90;;;;;;5133800;27;20054;-80
2021/07/18 04:06:07;;;;;;;13.55;6.20;;;19.40;99.90;;;;;;5133659;27;20023;-81
2021/07/18 04:08:32;;;;;;;13.77;6.68;;;19.30;99.90;;;;;;5133600;27;20498;-78
2021/07/18 04:10:58;;;;;;;16.17;6.32;;;19.20;99.90;;;;;;5133563;27;20023;-78
2021/07/18 04:13:24;;;;;;;13.75;7.32;;;19.20;99.90;;;;;;5133414;27;20023;-78
2021/07/18 04:15:49;;;;;;;13.00;6.10;;;19.30;99.90;;;;;;5133336;27;20023;-79
2021/07/18 04:18:15;;;;;;;11.75;6.18;;;19.10;99.90;;;;;;5115686;27;20084;-80
2021/07/18 04:20:41;;;;;;;13.35;6.47;;;19.10;99.90;;;;;;5115052;27;20118;-78
2021/07/18 04:23:08;;;;;;;13.13;5.68;;;19.30;99.90;;;;;;5133011;27;20106;-78
2021/07/18 04:25:34;;;;;;;21.25;6.00;;;19.30;99.90;;;;;;5133104;27;20031;-80
2021/07/18 04:28:00;;;;;;;14.85;6.13;;;19.30;99.90;;;;;;5114865;27;20106;-79
2021/07/18 04:30:25;;;;;;;12.23;5.82;;;19.40;99.90;;;;;;5115202;27;20022;-79
2021/07/18 04:32:51;;;;;;;13.68;6.63;;;19.40;99.90;;;;;;5115676;27;20030;-78
2021/07/18 04:35:17;;;;;;;13.68;6.60;;;19.40;99.90;;;;;;5114982;27;20019;-80
2021/07/18 04:37:42;;;;;;;12.65;6.15;;;19.40;99.90;;;;;;5132832;27;20054;-79
2021/07/18 04:40:11;;;;;;;14.23;6.57;;;19.30;99.90;;;;;;5132711;27;20449;-80
2021/07/18 04:42:37;;;;;;;11.95;6.40;;;19.40;99.90;;;;;;5132652;27;20011;-78
2021/07/18 04:45:03;;;;;;;11.40;6.60;;;19.40;99.90;;;;;;5114670;27;20039;-79
2021/07/18 04:47:29;;;;;;;15.05;6.97;;;19.50;99.90;;;;;;5132767;27;20112;-80
2021/07/18 04:49:54;;;;;;;13.85;6.28;;;19.50;99.90;;;;;;5132614;27;20422;-78
2021/07/18 04:52:20;;;;;;;12.02;5.25;;;19.50;99.90;;;;;;5114531;27;20024;-79
2021/07/18 04:54:45;;;;;;;16.48;6.95;;;19.40;99.90;;;;;;5132390;27;20636;-78
2021/07/18 04:57:11;;;;;;;19.63;8.93;;;19.20;99.90;;;;;;5132907;27;20464;-79
2021/07/18 04:59:37;;;;;;;17.08;7.38;;;19.20;99.90;;;;;;5132560;27;20502;-78
2021/07/18 05:02:03;;;;;;;17.60;7.57;;;19.30;99.90;;;;;;5132446;27;20333;-79
2021/07/18 05:04:29;;;;;;;14.05;7.78;;;19.20;99.90;;;;;;5132358;27;20023;-79
2021/07/18 05:06:55;;;;;;;18.60;7.60;;;19.30;99.90;;;;;;5132309;27;20030;-78
2021/07/18 05:09:20;;;;;;;14.45;7.38;;;19.30;99.90;;;;;;5132562;27;20023;-77
2021/07/18 05:11:46;;;;;;;19.48;7.65;;;19.30;99.90;;;;;;5131905;27;20115;-78
2021/07/18 05:14:11;;;;;;;18.23;8.18;;;19.50;99.90;;;;;;5113934;27;20053;-78
2021/07/18 05:16:37;;;;;;;17.02;7.97;;;19.50;99.90;;;;;;5131261;27;20364;-78
2021/07/18 05:19:03;;;;;;;16.42;7.40;;;19.40;99.90;;;;;;5132150;27;20031;-78
2021/07/18 05:21:28;;;;;;;16.58;7.53;;;19.50;99.90;;;;;;5131985;27;20019;-78
2021/07/18 05:23:54;;;;;;;15.68;8.88;;;19.60;99.90;;;;;;5132435;27;20352;-79
2021/07/18 05:26:19;;;;;;;15.70;8.98;;;19.60;99.90;;;;;;5132168;27;20338;-80
2021/07/18 05:28:45;;;;;;;16.45;7.72;;;19.60;99.90;;;;;;5132010;27;20038;-80
2021/07/18 05:31:10;;;;;;;17.30;8.38;;;19.70;99.90;;;;;;5113832;27;20047;-78
2021/07/18 05:33:36;;;;;;;14.75;8.48;;;19.60;99.90;;;;;;5131738;27;20480;-77
2021/07/18 05:36:01;;;;;;;18.25;9.80;;;19.70;99.90;;;;;;5132100;27;20015;-79
2021/07/18 05:38:27;;;;;;;25.35;10.40;;;19.80;99.90;;;;;;5131710;27;20561;-80
2021/07/18 05:40:52;;;;;;;18.33;9.95;;;19.70;99.90;;;;;;5131447;27;20046;-78
2021/07/18 05:43:18;;;;;;;19.50;10.70;;;19.70;99.90;;;;;;5131665;27;20443;-77
2021/07/18 05:45:44;;;;;;;20.10;11.15;;;19.70;99.90;;;;;;5131665;27;20429;-78
2021/07/18 05:48:09;;;;;;;20.17;11.10;;;19.60;99.90;;;;;;5113911;28;20483;-77
2021/07/18 05:50:35;;;;;;;20.63;10.00;;;19.80;99.90;;;;;;5131216;27;20396;-75
2021/07/18 05:53:00;;;;;;;24.75;10.65;;;19.70;99.90;;;;;;5131353;27;20406;-76
2021/07/18 05:55:26;;;;;;;21.15;10.38;;;19.70;99.90;;;;;;5131506;27;20035;-75
2021/07/18 05:57:53;;;;;;;17.58;9.77;;;19.70;99.90;;;;;;5131255;28;20369;-75
2021/07/18 06:00:19;;;;;;;19.83;8.48;;;19.70;99.90;;;;;;5131942;28;20019;-75
2021/07/18 06:02:45;;;;;;;16.77;8.48;;;19.70;99.90;;;;;;5131463;28;20080;-74
2021/07/18 06:05:11;;;;;;;12.88;7.80;;;19.60;99.90;;;;;;5131229;28;20027;-73
2021/07/18 06:07:38;;;;;;;19.10;7.80;;;19.60;99.90;;;;;;5131379;28;20038;-74
2021/07/18 06:10:08;;;;;;;22.43;11.53;;;19.50;99.90;;;;;;5131310;28;20353;-76
2021/07/18 06:12:34;;;;;;;17.17;7.07;;;19.70;99.90;;;;;;5131168;28;20383;-75
2021/07/18 06:14:59;;;;;;;13.70;7.60;;;19.60;99.90;;;;;;5131843;28;20098;-74
2021/07/18 06:17:25;;;;;;;21.20;7.47;;;19.70;99.90;;;;;;5131299;28;20032;-77
2021/07/18 06:19:51;;;;;;;17.27;7.28;;;19.80;99.90;;;;;;5131616;28;20476;-76
2021/07/18 06:22:16;;;;;;;17.77;7.50;;;19.60;99.90;;;;;;5131211;28;20031;-79
2021/07/18 06:24:42;;;;;;;19.02;7.63;;;19.70;99.90;;;;;;5130801;28;20023;-78
2021/07/18 06:27:07;;;;;;;17.00;6.63;;;19.80;99.90;;;;;;5131894;27;20362;-78
2021/07/18 06:29:34;;;;;;;18.58;6.80;;;19.90;99.90;;;;;;5117086;27;20023;-76
2021/07/18 06:32:00;;;;;;;17.08;6.72;;;19.80;99.90;;;;;;5135150;27;20023;-74
2021/07/18 06:34:26;;;;;;;14.57;6.18;;;19.90;99.90;;;;;;5135321;27;20382;-74
2021/07/18 06:36:52;;;;;;;15.43;6.35;;;19.90;99.90;;;;;;5135017;27;20047;-77
2021/07/18 06:39:19;;;;;;;18.90;6.35;;;19.90;99.90;;;;;;5117408;27;20035;-75
2021/07/18 06:41:44;;;;;;;17.88;5.85;;;20.00;99.90;;;;;;5135002;27;20387;-79
2021/07/18 06:44:10;;;;;;;9.40;5.40;;;20.10;99.90;;;;;;5135277;27;20039;-82
2021/07/18 06:46:36;;;;;;;12.88;5.20;;;20.20;99.90;;;;;;5135088;27;20030;-74
2021/07/18 06:49:01;;;;;;;10.23;4.85;;;20.10;99.90;;;;;;5134848;27;20511;-71
2021/07/18 06:51:27;;;;;;;12.90;4.80;;;20.10;99.90;;;;;;5134698;27;20031;-79
2021/07/18 06:53:53;;;;;;;14.70;5.05;;;20.20;99.90;;;;;;5117255;27;20061;-78
2021/07/18 06:56:18;;;;;;;11.40;4.72;;;20.30;99.90;;;;;;5134677;27;20073;-79
2021/07/18 06:58:44;;;;;;;15.38;5.40;;;20.20;99.90;;;;;;5134848;27;20134;-79
2021/07/18 07:01:10;;;;;;;9.88;4.90;;;20.40;99.90;;;;;;5134643;27;20031;-78
2021/07/18 07:03:35;;;;;;;11.48;6.07;;;20.50;99.90;;;;;;5116635;27;20045;-78
2021/07/18 07:06:02;;;;;;;14.80;6.63;;;20.60;99.90;;;;;;5135127;27;20029;-78
2021/07/18 07:08:31;;;;;;;14.60;6.73;;;20.60;99.70;;;;;;5134897;27;20127;-77
2021/07/18 07:10:57;;;;;;;21.23;7.50;;;20.60;99.80;;;;;;5134481;27;20035;-75
2021/07/18 07:13:22;;;;;;;12.27;6.93;;;20.40;99.80;;;;;;5134558;27;20384;-71
2021/07/18 07:15:48;;;;;;;15.75;6.25;;;20.40;99.90;;;;;;5134316;27;20023;-77
2021/07/18 07:18:14;;;;;;;18.23;6.68;;;20.40;99.80;;;;;;5134839;27;20027;-78
2021/07/18 07:20:39;;;;;;;11.93;6.05;;;20.60;99.70;;;;;;5134373;27;20425;-79
2021/07/18 07:23:05;;;;;;;15.00;6.07;;;20.70;99.60;;;;;;5134276;27;20038;-71
2021/07/18 07:25:31;;;;;;;9.60;5.47;;;20.60;99.60;;;;;;5134225;27;20054;-79
2021/07/18 07:27:56;;;;;;;17.45;6.03;;;20.60;99.70;;;;;;5134263;27;20023;-81
2021/07/18 07:30:22;;;;;;;13.90;6.28;;;20.70;99.70;;;;;;5116983;27;20089;-79
2021/07/18 07:32:48;;;;;;;10.95;5.38;;;20.80;99.70;;;;;;5134584;27;20031;-78
2021/07/18 07:35:14;;;;;;;11.63;6.13;;;20.70;99.60;;;;;;5134028;27;20065;-82
2021/07/18 07:37:44;;;;;;;11.13;6.18;;;20.50;99.60;;;;;;5134088;27;20038;-79
2021/07/18 07:40:12;;;;;;;17.42;6.05;;;20.60;99.70;;;;;;5133339;27;20360;-83
2021/07/18 07:42:39;;;;;;;11.98;5.78;;;20.60;99.60;;;;;;5134068;27;20024;-81
2021/07/18 07:45:05;;;;;;;16.08;5.57;;;20.60;99.60;;;;;;5134392;27;20026;-81
2021/07/18 07:47:31;;;;;;;16.92;6.20;;;20.70;99.60;;;;;;5134021;27;20023;-82
2021/07/18 07:49:57;;;;;;;18.30;6.50;;;20.70;99.40;;;;;;5134143;27;20730;-79
2021/07/18 07:52:23;;;;;;;18.05;5.50;;;20.80;99.50;;;;;;5134473;27;20119;-81
2021/07/18 07:54:48;;;;;;;19.90;6.57;;;20.70;99.60;;;;;;5133798;27;20491;-78
2021/07/18 07:57:14;;;;;;;12.75;5.85;;;20.70;99.60;;;;;;5134233;27;20046;-79
2021/07/18 07:59:40;;;;;;;13.75;5.80;;;20.60;99.60;;;;;;5133382;27;20058;-78
2021/07/18 08:02:05;;;;;;;10.50;6.35;;;20.70;99.60;;;;;;5133854;27;20027;-76
2021/07/18 08:04:31;;;;;;;13.70;7.82;;;20.70;99.70;;;;;;5133581;27;20060;-75
2021/07/18 08:06:57;;;;;;;15.57;6.72;;;20.70;99.70;;;;;;5133407;27;20036;-75
2021/07/18 08:09:23;;;;;;;14.60;6.10;;;20.80;99.50;;;;;;5133980;27;20091;-76
2021/07/18 08:11:49;;;;;;;13.00;6.05;;;21.00;99.30;;;;;;5133612;27;20452;-74
2021/07/18 08:14:15;;;;;;;10.98;5.75;;;21.00;99.20;;;;;;5133435;27;20030;-71
2021/07/18 08:16:41;;;;;;;12.85;5.88;;;21.00;99.10;;;;;;5133722;27;20537;-68
2021/07/18 08:19:07;;;;;;;13.25;6.22;;;20.80;99.10;;;;;;5133357;27;20334;-71
2021/07/18 08:21:33;;;;;;;10.73;5.85;;;20.80;99.20;;;;;;5133183;27;20046;-71
2021/07/18 08:23:58;;;;;;;10.75;5.88;;;20.80;99.10;;;;;;5115320;27;20039;-74
2021/07/18 08:26:24;;;;;;;9.25;5.85;;;20.70;99.10;;;;;;5132944;27;20061;-73
2021/07/18 08:28:50;;;;;;;13.82;6.72;;;20.70;99.10;;;;;;5132956;27;20038;-74
2021/07/18 08:31:17;;;;;;;12.45;6.18;;;20.70;99.00;;;;;;5114968;27;20418;-75
2021/07/18 08:33:43;;;;;;;13.55;5.22;;;20.60;98.90;;;;;;5133178;27;20023;-73
2021/07/18 08:36:09;;;;;;;11.68;5.50;;;20.70;99.00;;;;;;5133236;27;20165;-74
2021/07/18 08:38:35;;;;;;;10.18;5.10;;;20.80;98.90;;;;;;5132974;27;20023;-74
2021/07/18 08:41:01;;;;;;;8.52;5.47;;;20.80;98.70;;;;;;5132501;27;20046;-73
2021/07/18 08:43:27;;;;;;;8.60;5.15;;;20.90;98.60;;;;;;5132919;27;20104;-75
2021/07/18 08:45:52;;;;;;;6.70;4.78;;;20.90;98.50;;;;;;5132382;27;20031;-73
2021/07/18 08:48:18;;;;;;;10.15;5.93;;;20.90;98.50;;;;;;5114919;27;20027;-75
2021/07/18 08:50:44;;;;;;;9.85;5.68;;;21.20;98.40;;;;;;5132685;27;20027;-74
2021/07/18 08:53:10;;;;;;;10.10;5.25;;;21.20;98.20;;;;;;5132314;27;20031;-74
2021/07/18 08:55:38;;;;;;;7.35;4.80;;;21.30;98.40;;;;;;5132313;27;20128;-74
2021/07/18 08:58:04;;;;;;;9.27;4.60;;;21.20;97.90;;;;;;5132198;27;20035;-75
2021/07/18 09:00:30;;;;;;;8.23;4.57;;;21.50;98.10;;;;;;5132532;27;20050;-71
2021/07/18 09:02:55;;;;;;;10.98;4.82;;;21.50;98.10;;;;;;5133128;27;20128;-69
2021/07/18 09:05:21;;;;;;;8.07;5.05;;;21.60;97.80;;;;;;5132375;27;20138;-71
2021/07/18 09:07:52;;;;;;;8.65;4.65;;;21.50;98.00;;;;;;5132316;27;20046;-77
2021/07/18 09:10:29;;;;;;;9.15;4.97;;;21.50;97.70;;;;;;5132260;27;20464;-78
2021/07/18 09:13:12;;;;;;;9.18;5.95;;;21.70;97.80;;;;;;5132056;27;20420;-76
2021/07/18 09:15:54;;;;;;;8.93;5.88;;;21.60;97.70;;;;;;5131934;27;20033;-77
2021/07/18 09:18:22;;;;;;;11.98;5.88;;;21.70;97.60;;;;;;5132623;27;20039;-74
2021/07/18 09:20:53;;;;;;;12.13;6.32;;;21.70;97.30;;;;;;5132138;27;20089;-74
2021/07/18 09:23:21;;;;;;;8.52;5.50;;;21.70;97.30;;;;;;5132132;27;20035;-72
2021/07/18 09:25:48;;;;;;;10.40;5.10;;;22.10;97.40;;;;;;5132036;27;20173;-73
2021/07/18 09:28:19;;;;;;;11.38;5.47;;;22.60;96.90;;;;;;5131856;27;20030;-75
2021/07/18 09:30:46;;;;;;;6.20;4.13;;;23.40;96.40;;;;;;5113531;27;20027;-71
2021/07/18 09:33:22;;;;;;;7.95;4.78;;;24.30;95.30;;;;;;5114098;27;20055;-74
2021/07/18 09:35:48;;;;;;;6.95;3.88;;;24.50;94.20;;;;;;5113890;27;20501;-76
2021/07/18 09:38:26;;;;;;;8.18;4.60;;;24.60;93.60;;;;;;5131864;27;20039;-75
2021/07/18 09:40:57;;;;;;;5.80;3.50;;;25.40;93.70;;;;;;5113466;27;20047;-74
2021/07/18 09:43:23;;;;;;;9.35;4.05;;;25.50;92.80;;;;;;5131599;27;20035;-73
2021/07/18 09:46:00;;;;;;;7.18;4.03;;;25.60;92.90;;;;;;5131557;27;20035;-72
2021/07/18 09:48:44;;;;;;;8.90;3.70;;;26.00;92.40;;;;;;5131421;27;20027;-74
2021/07/18 09:51:16;;;;;;;6.97;3.50;;;25.60;92.00;;;;;;5113745;27;20060;-71
2021/07/18 09:53:43;;;;;;;6.95;3.33;;;25.80;92.30;;;;;;5131416;27;20024;-71
2021/07/18 09:56:10;;;;;;;7.05;3.08;;;25.50;92.10;;;;;;5113393;27;20031;-70
2021/07/18 09:58:51;;;;;;;4.43;3.42;;;25.70;92.10;;;;;;5131372;27;20408;-69
2021/07/18 10:01:18;;;;;;;9.35;3.10;;;26.00;92.00;;;;;;5131552;28;20023;-70
2021/07/18 10:03:57;;;;;;;9.23;3.10;;;26.00;91.60;;;;;;5136876;27;20031;-70
2021/07/18 10:06:27;;;;;;;5.07;2.55;;;25.60;91.50;;;;;;5138983;27;20030;-69
2021/07/18 10:08:55;;;;;;;5.88;3.05;;;25.90;91.70;;;;;;5137962;27;20050;-71
2021/07/18 10:11:23;;;;;;;11.02;3.63;;;25.80;91.30;;;;;;5138206;27;20040;-70
2021/07/18 10:13:50;;;;;;;6.82;3.17;;;25.50;91.50;;;;;;5137863;27;20028;-74
2021/07/18 10:16:18;;;;;;;7.80;3.20;;;25.60;91.60;;;;;;5138069;27;20022;-70
2021/07/18 10:18:45;;;;;;;;;;;25.40;92.00;;;;;;5138172;27;20035;-72
2021/07/18 10:21:13;;;;;;;7.47;3.45;;;25.60;91.60;;;;;;5138369;27;19912;-71
2021/07/18 10:23:41;;;;;;;5.90;2.78;;;25.60;91.90;;;;;;5137915;27;20020;-67
2021/07/18 10:26:07;;;;;;;8.35;3.42;;;25.80;91.60;;;;;;5137755;27;20023;-70
2021/07/18 10:28:35;;;;;;;5.97;2.90;;;25.70;91.40;;;;;;5137836;27;20039;-68
2021/07/18 10:31:10;;;;;;;9.20;3.08;;;25.80;91.60;;;;;;5137861;27;20027;-68
2021/07/18 10:33:36;;;;;;;5.85;3.13;;;26.00;91.40;;;;;;5137820;27;20098;-71
2021/07/18 10:36:02;;;;;;;5.03;2.90;;;26.10;91.10;;;;;;5138375;27;20019;-70
2021/07/18 10:38:34;;;;;;;6.05;3.15;;;26.00;90.80;;;;;;5137716;27;20063;-69
2021/07/18 10:41:00;;;;;;;6.68;3.35;;;25.90;91.00;;;;;;5137749;27;20046;-72
2021/07/18 10:43:35;;;;;;;6.53;3.03;;;25.90;91.10;;;;;;5137939;27;20023;-71
2021/07/18 10:46:01;;;;;;;4.82;2.72;;;25.80;90.80;;;;;;5137813;27;20038;-71
2021/07/18 10:48:49;;;;;;;5.53;3.08;;;25.80;91.10;;;;;;5137860;27;20061;-72
2021/07/18 10:51:17;;;;;;;8.35;3.75;;;25.60;90.70;;;;;;5138363;27;20166;-71
2021/07/18 10:53:44;;;;;;;4.55;2.85;;;25.40;90.70;;;;;;5138007;27;20042;-68
2021/07/18 10:56:10;;;;;;;4.65;3.03;;;25.40;91.30;;;;;;5137175;27;20418;-67
2021/07/18 10:58:38;;;;;;;6.63;2.75;;;25.60;91.00;;;;;;5137870;27;20046;-69
2021/07/18 11:01:11;;;;;;;6.60;3.03;;;25.80;91.00;;;;;;5137491;27;20513;-70
2021/07/18 11:03:41;;;;;;;7.00;3.10;;;25.70;90.70;;;;;;5137693;27;20019;-72
2021/07/18 11:06:23;;;;;;;4.47;2.70;;;25.60;90.30;;;;;;5138378;27;20344;-71
2021/07/18 11:09:18;;;;;;;6.93;2.65;;;25.70;90.40;;;;;;5120010;27;20096;-71
2021/07/18 11:11:51;;;;;;;6.68;2.80;;;25.80;90.20;;;;;;5137796;27;20031;-70
2021/07/18 11:14:37;;;;;;;6.20;3.00;;;25.70;90.40;;;;;;5134548;27;20046;-68
2021/07/18 11:17:08;;;;;;;6.50;3.00;;;25.80;90.10;;;;;;5134069;27;20712;-69
2021/07/18 11:19:39;;;;;;;9.02;3.40;;;26.00;90.10;;;;;;5134354;27;20313;-69
2021/07/18 11:22:13;;;;;;;6.95;3.88;;;25.90;90.20;;;;;;5124264;27;20043;-71
2021/07/18 11:24:56;;;;;;;6.75;3.10;;;25.90;90.00;;;;;;5095559;28;20106;-71
2021/07/18 11:27:27;;;;;;;9.98;2.67;;;25.80;89.90;;;;;;5114161;28;20094;-70
2021/07/18 11:29:54;;;;;;;6.28;3.28;;;26.00;90.10;;;;;;5113971;28;20092;-70
2021/07/18 11:32:22;;;;;;;7.55;3.10;;;26.20;90.00;;;;;;5095634;28;20024;-70
2021/07/18 11:34:47;;;;;;;5.75;3.45;;;26.30;89.10;;;;;;5113640;28;20035;-70
2021/07/18 11:37:14;;;;;;;4.70;2.40;;;26.30;89.10;;;;;;5095285;28;20046;-70
2021/07/18 11:39:42;;;;;;;4.47;3.00;;;26.20;88.20;;;;;;5095211;28;20077;-70
2021/07/18 11:42:09;;;;;;;4.22;3.05;;;26.20;88.90;;;;;;5113583;28;20054;-71
2021/07/18 11:44:36;;;;;;;6.63;3.63;;;26.20;89.20;;;;;;5113367;28;20053;-69
2021/07/18 11:47:04;;;;;;;10.85;3.85;;;26.00;89.60;;;;;;5113171;28;20175;-68
2021/07/18 11:49:33;;;;;;;15.07;4.97;;;26.00;90.20;;;;;;5113274;28;20099;-68
2021/07/18 11:51:59;;;;;;;10.13;4.30;;;26.20;90.40;;;;;;5112939;28;20028;-69
2021/07/18 11:54:25;;;;;;;9.80;3.85;;;26.00;89.50;;;;;;5112708;28;20337;-69
2021/07/18 11:56:51;;;;;;;12.10;3.88;;;26.20;89.70;;;;;;5113019;28;20047;-68
2021/07/18 11:59:19;;;;;;;6.55;3.80;;;26.20;90.00;;;;;;5113016;28;20074;-70
2021/07/18 12:01:47;;;;;;;10.50;3.63;;;26.20;89.70;;;;;;5113357;28;20024;-72
2021/07/18 12:04:24;;;;;;;8.77;3.42;;;26.20;90.00;;;;;;5113021;28;20028;-71
2021/07/18 12:06:51;;;;;;;7.93;3.55;;;26.30;89.50;;;;;;5112757;28;20506;-70
2021/07/18 12:09:21;;;;;;;;;;;26.00;89.50;;;;;;5113908;28;20019;-71
2021/07/18 12:11:49;;;;;;;8.05;3.80;;;26.00;90.40;;;;;;5112467;28;20355;-71
2021/07/18 12:14:16;;;;;;;7.72;3.53;;;26.20;91.00;;;;;;5091244;28;20032;-71
2021/07/18 12:16:44;;;;;;;9.15;3.42;;;26.50;90.90;;;;;;5094711;28;20032;-71
2021/07/18 12:19:12;;;;;;;8.00;3.53;;;26.50;90.00;;;;;;5112697;28;20142;-69
2021/07/18 12:21:45;;;;;;;8.02;3.72;;;26.60;89.60;;;;;;5112879;28;20028;-68
2021/07/18 12:24:22;;;;;;;12.75;4.78;;;26.60;89.50;;;;;;5112909;28;20627;-69
2021/07/18 12:26:58;;;;;;;5.43;2.35;;;26.40;88.60;;;;;;5112550;28;20164;-70
2021/07/18 12:29:25;;;;;;;6.32;3.38;;;26.40;88.00;;;;;;5112524;28;20071;-71
2021/07/18 12:31:50;;;;;;;4.23;2.80;;;26.40;88.30;;;;;;5094311;28;20035;-69
2021/07/18 12:34:18;;;;;;;6.20;3.45;;;26.10;89.40;;;;;;5112712;28;20028;-70
2021/07/18 12:37:09;;;;;;;4.97;3.47;;;26.40;88.80;;;;;;5112298;28;20051;-70
2021/07/18 12:39:42;;;;;;;7.88;3.28;;;26.30;89.30;;;;;;5112198;28;20028;-72
2021/07/18 12:42:13;;;;;;;3.45;2.70;;;26.50;89.70;;;;;;5112476;28;20047;-73